Rodrigo Freitas

Chief Scout - Vasco da Gama
25 Dec 2027
Saturday
Process

Personality

Adaptability (14) Ambition (11) Controversy (8) Loyalty (3) Pressure (12) Professionalism (12) Sportsmanship (14) Temperament (1)

Profile

Coaching Style Democratic
License National B
Determination 5
Man Management 12
Motivating 7
Discipline 13
Job Satisfaction
100%
Fatigue
0%
Role Chief Scout
Wage 27.5K p/w
Contract 14.03.2028

Performance

Behaviour Good
Training Effectiveness
52%
Player Development
50%
Injury Prevention
55%
Tactical Implementation
70%

Recent Events

Recommended a transfer target now
Recommended a transfer target now
Recommended a transfer target now
Recommended a transfer target now
Recommended a transfer target now
Recommended a transfer target now
Contract negotiation started now
Contract negotiation started now

Currently Monitoring

235
Player Club Status Ability Confidence Watched Last Observed Latest Vote
Esquerdinha Oldham Athletic Active 115 / 137 40% 1 01.12.2027 -
Gideon Manaseh Ikorodu City Active 87 / 92 40% 1 01.12.2027 -
Olaniyi Saheed Kwara United Active 99 / 91 40% 1 01.12.2027 -
Jonatan Torres Cerro Porteno Active 125 / 110 40% 1 30.11.2027 -
Gustavo Silva Bahia Active 132 / 114 40% 1 30.11.2027 -
Arthur Cabral Botafogo Active 135 / 140 40% 4 13.09.2027 -
Erison Bragantino Active 138 / 134 40% 1 13.09.2027 -
Agustín Hausch Caracas Active 130 / 125 40% 2 12.09.2027 -
Lucas Villalba Botafogo Active 125 / 128 40% 3 12.09.2027 -
Liel Abada Charlotte Football Club Active 133 / 137 40% 8 11.09.2027 -
Alan Cantero Juan Aurich Active 123 / 118 40% 2 11.09.2027 -
Bruno Barticciotto Talleres Active 122 / 113 40% 2 11.09.2027 -
Luca Martínez Dupuy Godoy Cruz Active 117 / 125 40% 4 09.09.2027 -
João Klauss LA Galaxy Active 134 / 137 40% 2 09.09.2027 -
Alan Velasco Boca Juniors Active 141 / 125 40% 2 09.09.2027 -
Leonardo Campana New England Revolution Active 117 / 133 40% 2 07.09.2027 -
Negueba Mirassol Active 130 / 111 40% 3 05.09.2027 -
Louis Munteanu DC United Active 132 / 109 40% 1 05.09.2027 -
Jonás Acevedo Instituto Active 126 / 128 40% 1 05.09.2027 -
Matías Vargas Ceará Active 126 / 123 40% 1 03.09.2027 -
Ramón Mierez Al Nasr Active 128 / 143 40% 1 01.09.2027 -
Tomás Chancalay Minnesota United FC Active 132 / 134 40% 1 31.08.2027 -
Bénie Traoré New York City Active 128 / 137 40% 1 31.08.2027 -
Rafael Navarro St. Louis CITY SC Active 118 / 109 40% 2 30.08.2027 -
Federico Girotti Alianza Lima Active 125 / 134 40% 2 30.08.2027 -
Alejo Cruz Juventud Active 122 / 130 40% 2 28.08.2027 -
Morgan Guilavogui Real Salt Lake Active 127 / 114 40% 1 27.08.2027 -
Lewis Morgan Toronto FC Active 116 / 139 40% 1 24.08.2027 -
Mathias Pereira Lage St. Pauli Active 138 / 147 40% 1 22.08.2027 -
Ali Youssef Apollon Active 135 / 134 40% 1 22.08.2027 -
Nicolò Zaniolo Udinese Active 158 / 163 40% 3 20.08.2027 -
Christian Pulisic AC Milan Active 166 / 155 40% 1 20.08.2027 -
Andrea Pinamonti Lazio Active 146 / 124 40% 1 19.08.2027 -
Giorgi Kvernadze Frosinone Active 140 / 133 40% 1 19.08.2027 -
Santiago Pierotti Lecce Active 141 / 139 40% 2 17.08.2027 -
Gianluca Scamacca Atalanta Active 153 / 151 40% 1 17.08.2027 -
Zakaria Aboukhlal Torino Active 132 / 155 40% 1 16.08.2027 -
Matheus Davó Maccabi Netanya Active 114 / 111 40% 1 16.08.2027 -
Talles Magno New York City Active 125 / 129 40% 2 13.08.2027 -
Mateo Pellegrino Fiorentina Active 148 / 156 40% 6 13.08.2027 -
Liam Delap Nottingham Forest Active 160 / 163 40% 3 09.08.2027 -
Kevin Schade Brentford Active 159 / 146 40% 6 09.08.2027 -
Aaron Collins Milton Keynes Dons Active 128 / 126 40% 1 09.08.2027 -
Zian Flemming Ipswich Town Active 131 / 133 40% 5 08.08.2027 -
Richard Koné Queens Park Rangers Active 130 / 114 40% 1 08.08.2027 -
Tommy Conway Middlesbrough Active 132 / 124 40% 1 08.08.2027 -
Lamine Cissé Peterborough United Active 121 / 135 40% 6 06.08.2027 -
Thiago Brentford Active 144 / 140 40% 4 06.08.2027 -
Igor Jesus Nottingham Forest Active 154 / 151 40% 5 04.08.2027 -
Brennan Johnson Everton Active 149 / 143 40% 6 04.08.2027 -
Mathias Jørgensen Blackburn Rovers Active 133 / 124 40% 3 04.08.2027 -
Jay Stansfield Birmingham Active 127 / 113 40% 1 03.08.2027 -
Jean-Philippe Mateta Crystal Palace Active 152 / 165 40% 4 12.07.2027 -
Taiwo Awoniyi Coventry City Active 141 / 143 40% 8 05.07.2027 -
Gustavo Scarpa Atlético Mineiro Active 134 / 136 69% 1 28.06.2027 Approve
Biel La Equidad Active 116 / 130 40% 2 01.06.2027 -
Paulinho Hamburger SV Negotiating 140 / 140 68% 1 01.06.2027 Approve
Vitor Roque Mainz 05 Active 140 / 145 66% 1 01.06.2027 Approve
Danilo Botafogo Active 135 / 136 66% 1 01.06.2027 Approve
Tomás Pérez Porto Active 115 / 114 40% 1 01.06.2027 -
Ismaïla Sarr Crystal Palace Active 160 / 134 40% 4 31.05.2027 -
Aune Heggebø West Bromwich Albion Active 118 / 130 40% 4 30.05.2027 -
George Hirst Stoke City Active 131 / 146 40% 9 28.05.2027 -
Rodrigo Muniz Fulham Active 131 / 151 40% 5 27.05.2027 -
Rumarn Burrell Queens Park Rangers Active 136 / 114 40% 9 27.05.2027 -
Luís Henrique Inter Active 144 / 125 40% 3 27.05.2027 -
Finn Azaz Southampton Active 131 / 123 40% 3 27.05.2027 -
Khvicha Kvaratskhelia Inter Active 180 / 176 40% 3 27.05.2027 -
Thiago Almada Fiorentina Active 157 / 157 40% 3 26.05.2027 -
Emile Smith Rowe Fulham Active 152 / 164 40% 1 26.05.2027 -
Isaiah Jones Luton Town Active 116 / 112 40% 3 24.05.2027 -
Chemsdine Talbi Sunderland Active 141 / 134 40% 1 24.05.2027 -
Dango Ouattara Brentford Active 158 / 162 40% 2 22.05.2027 -
Enzo Barrenechea Burnley Active 153 / 157 40% 2 22.05.2027 -
Cameron Archer Southampton Active 129 / 125 40% 2 22.05.2027 -
Nicolas Jackson Aston Villa Active 155 / 159 40% 1 22.05.2027 -
Jeon Jin-Woo Sheffield Wednesday Active 131 / 120 40% 4 18.05.2027 -
Yankuba Minteh Brighton Active 158 / 142 40% 1 18.05.2027 -
Lautaro Martínez Inter Active 179 / 181 40% 1 15.05.2027 -
Joe Gelhardt Hull City Active 130 / 139 40% 3 13.05.2027 -
Elijah Adebayo Luton Town Active 116 / 121 40% 6 09.05.2027 -
Tammy Abraham Aston Villa Active 141 / 126 40% 7 09.05.2027 -
Gonçalo Oliveira Benfica Active 103 / 100 40% 2 07.05.2027 -
Caleb Yirenkyi Coventry City Active 129 / 145 40% 1 07.05.2027 -
Yousef Salech Cardiff City Active 119 / 131 40% 7 05.05.2027 -
Santiago Castro AS Roma Active 157 / 153 40% 3 04.05.2027 -
Gonzalo Fulham Active 149 / 148 40% 2 03.05.2027 -
Tyrese Campbell Sheffield United Active 136 / 125 40% 2 27.04.2027 -
Naïs Djouahra Arouca Active 116 / 114 40% 3 26.04.2027 -
Moncef Zekri Sporting CP Active 85 / 94 40% 3 26.04.2027 -
Jofre Torrents Ajax Active 132 / 111 40% 1 26.04.2027 -
Riley Owen Wycombe Wanderers Active 98 / 123 40% 1 24.04.2027 -
Julio Enciso Ipswich Town Active 152 / 134 40% 2 22.04.2027 -
Martim Cunha Porto Active 93 / 92 40% 2 20.04.2027 -
Maeson King Blackpool Active 111 / 126 40% 1 20.04.2027 -
Rafael Leão Galatasaray Active 171 / 176 40% 1 18.04.2027 -
Kevin Fulham Active 153 / 152 40% 1 18.04.2027 -
Pablo Solari Spartak Moscow Active 135 / 129 40% 3 15.04.2027 -
Ronald Swansea City Active 119 / 115 40% 4 15.04.2027 -
Jovon Makama Norwich City Active 136 / 129 40% 3 12.04.2027 -
Ross Stewart Southampton Active 121 / 116 40% 1 12.04.2027 -
Gerónimo Rivera Al Wahda Active 136 / 109 40% 1 12.04.2027 -
Jhon Jhon Zenit Active 127 / 131 40% 3 11.04.2027 -
Marquinhos Spartak Moscow Active 135 / 133 40% 5 11.04.2027 -
Ramón Terrats Getafe Active 132 / 126 40% 1 11.04.2027 -
Serginho Al Wasl Active 138 / 121 40% 1 10.04.2027 -
Pedro Flamengo Active 150 / 145 40% 11 08.04.2027 -
Bakary Haïdara Hearts of Oak Active 108 / 113 40% 2 07.04.2027 -
Sam Surridge Leeds United Active 131 / 128 40% 1 04.04.2027 -
Dávid Strelec Middlesbrough Active 129 / 147 40% 4 03.04.2027 -
André Wolverhampton Active 135 / 154 40% 2 03.04.2027 -
Gustavo Mantuan Zenit Active 133 / 141 40% 1 03.04.2027 -
Pablo Felipe West Ham United Active 130 / 132 40% 2 02.04.2027 -
Karlan Grant West Bromwich Albion Active 124 / 120 40% 1 02.04.2027 -
Yanis Begraoui Estoril Praia Active 133 / 133 40% 5 30.03.2027 -
Maximiliano Araújo Sporting CP Active 142 / 131 40% 3 30.03.2027 -
Pau Víctor Estrela da Amadora Active 133 / 147 40% 8 30.03.2027 -
Gabriel Silva Braga Active 127 / 140 40% 5 29.03.2027 -
Kerem Aktürkoğlu Fenerbahce Active 138 / 152 40% 3 29.03.2027 -
Alexis Vega Famalicao Active 150 / 159 40% 9 28.03.2027 -
Yoane Wissa Newcastle United Active 147 / 159 40% 5 28.03.2027 -
Petar Musa Braga Active 143 / 151 40% 2 24.03.2027 -
Vasco Santos Oliveirense Active 90 / 98 40% 1 24.03.2027 -
Luis Quintero Torreense Active 129 / 126 40% 3 23.03.2027 -
Jonas Wind Braga Active 132 / 129 40% 4 19.03.2027 -
Gustavo Silva Vitoria Guimaraes Active 122 / 111 40% 4 19.03.2027 -
Abraham Marcus Estrela da Amadora Active 128 / 104 40% 5 19.03.2027 -
João Simões Sporting CP Active 131 / 122 40% 2 18.03.2027 -
Vinícius Lopes Santa Clara Active 112 / 118 40% 5 17.03.2027 -
Arthur Gomes Dinamo Moscow Active 130 / 137 40% 4 17.03.2027 -
Roberto Fernández Braga Active 138 / 147 40% 18 11.03.2027 -
Helinho Toluca Active 125 / 149 40% 4 11.03.2027 -
Vitinho Internacional Active 128 / 121 40% 6 11.03.2027 -
Dinis Pinto Moreirense Active 126 / 110 40% 2 11.03.2027 -
Francisco Moura Penafiel Active 132 / 125 40% 1 11.03.2027 -
Mateo Cassierra Atlético Mineiro Active 125 / 141 40% 12 09.03.2027 -
William Gomes Porto Active 136 / 152 40% 6 09.03.2027 -
Figueiredo Alverca Active 132 / 145 40% 6 07.03.2027 -
Youssef En-Nesyri Al-Ittihad Active 131 / 155 40% 4 05.03.2027 -
Domagoj Drožđek Tractor Active 124 / 115 40% 3 03.03.2027 -
Henry Mosquera Bragantino Active 130 / 139 40% 5 27.02.2027 -
Gianluca Prestianni Benfica Active 144 / 156 40% 5 27.02.2027 -
Masoud Ebrahimi Sepahan Active 123 / 147 40% 2 26.02.2027 -
Ivan Toney Al-Ahli Active 140 / 134 40% 5 18.02.2027 -
Rodrigo Castillo Fluminense Active 130 / 127 40% 1 18.02.2027 -
Patrick Agyemang Derby County Active 120 / 109 40% 2 17.02.2027 -
Rafik Guitane Estoril Praia Active 125 / 136 40% 1 17.02.2027 -
Geny Sporting CP Active 143 / 161 40% 2 16.02.2027 -
Leandro Martins Benfica Active 95 / 99 40% 1 16.02.2027 -
Pablo Lúcio Farense Active 95 / 111 40% 1 16.02.2027 -
Adriano Bertaccini Anderlecht Active 134 / 134 40% 1 11.02.2027 -
Alfonso Trezza Arouca Active 113 / 104 40% 3 09.02.2027 -
Renato Kayser Vitória Active 116 / 115 40% 1 05.02.2027 -
Amir Hosseini Rah Ahan Active 130 / 103 40% 1 01.02.2027 -
Matheus Gonçalves Al-Ahli Active 118 / 129 40% 3 30.01.2027 -
Erick Pulga Bahia Active 130 / 141 40% 5 29.01.2027 Monitor
Mario Dorgeles Braga Active 132 / 153 40% 5 25.01.2027 -
Borja Sainz Porto Active 158 / 134 40% 2 25.01.2027 -
Enzo Loiodice KAA Gent Active 120 / 142 40% 1 24.01.2027 -
Carlos Álvarez Club America Active 149 / 141 40% 2 21.01.2027 -
Christian Krasnodar Active 145 / 141 40% 1 20.01.2027 -
César Huerta Pumas UNAM Active 128 / 110 40% 2 19.01.2027 -
Alberto Costa Porto Active 147 / 149 40% 3 17.01.2027 -
Gabriel Pec Cruzeiro Active 123 / 124 40% 2 15.01.2027 -
Alexandro Bernabei Internacional Active 134 / 119 40% 1 13.01.2027 -
Tetê Grêmio Active 124 / 124 40% 1 03.01.2027 -
Santi García Gil Vicente Active 120 / 121 40% 3 01.01.2027 -
Welington Southampton Active 120 / 120 40% 2 31.12.2026 -
Luis Sinisterra Cruzeiro Active 146 / 137 40% 1 29.12.2026 -
Welinton Torrão Santa Clara Active 118 / 103 40% 1 03.12.2026 -
Gabriel Novaes Leixões Active 115 / 119 40% 1 03.12.2026 -
Luiz Henrique VfB Stuttgart Active 142 / 143 68% 1 01.12.2026 Approve
Dodi Lukébakio Benfica Active 154 / 132 40% 8 30.11.2026 -
Iqraam Rayners Mamelodi Sundowns Active 145 / 114 40% 2 29.11.2026 -
Pepê Porto Active 135 / 137 40% 3 26.11.2026 -
João Paulo Crawley Town Active 105 / 84 40% 2 23.11.2026 -
Ollie Watkins Al-Hilal Active 155 / 146 40% 1 23.11.2026 -
Carlos Vinícius Grêmio Active 136 / 135 40% 6 21.11.2026 -
Veljko Birmančević Ferencvaros Active 136 / 130 40% 4 18.11.2026 -
Dominic Calvert-Lewin FC Nantes Active 142 / 130 40% 4 17.11.2026 -
Luciano Juba Bahia Active 128 / 135 40% 1 17.11.2026 -
Diego Rossi Monterrey Active 143 / 138 40% 2 16.11.2026 -
Leandro Trossard Besiktas Active 150 / 169 40% 5 16.11.2026 -
João Carvalho Estoril Praia Active 134 / 132 40% 2 14.11.2026 -
Malcom Al Jazira Active 143 / 163 40% 1 14.11.2026 -
Steven Bergwijn Al-Ittihad Active 154 / 164 40% 2 12.11.2026 -
João Palhinha Benfica Active 161 / 149 40% 4 11.11.2026 -
Matheus Pereira Cruzeiro Active 152 / 155 40% 1 10.11.2026 -
Pedrinho Shakhtar Active 128 / 134 40% 1 05.11.2026 -
Everton Cebolinha Farense Active 128 / 135 40% 2 01.11.2026 -
Julian Palacios Feyenoord Active 140 / 141 40% 1 30.10.2026 -
Taty Castellanos West Ham United Active 153 / 162 40% 3 26.10.2026 -
Gérson Cruzeiro Active 135 / 147 40% 1 26.10.2026 -
Clayton Olympiacos Active 140 / 139 40% 1 26.10.2026 -
Bryan Limbombe Maritimo Active 114 / 89 40% 1 23.10.2026 -
Guilherme Neiva AVS Active 107 / 97 40% 1 23.10.2026 -
Alex Luna Instituto Active 132 / 130 40% 1 19.10.2026 -
Denzel Lusitânia Lourosa Active 97 / 107 40% 1 18.10.2026 -
Oli McBurnie Hull City Active 124 / 117 40% 2 15.10.2026 -
Chuchu Ramírez Nacional Active 122 / 135 40% 1 11.10.2026 -
Luis Suárez PSV Active 164 / 151 40% 3 07.10.2026 -
Fredrik Aursnes Benfica Active 152 / 131 40% 2 06.10.2026 -
Pablo Ruan Nacional Active 111 / 95 40% 2 03.10.2026 -
Matheus Nascimento Houston Dynamo Active 122 / 118 40% 1 03.10.2026 -
Gabriel Tigrão Académico de Viseu Active 115 / 100 40% 1 03.10.2026 -
Gabriel Barbosa Farense Active 118 / 121 40% 1 02.10.2026 -
Rafael Santos Borré River Plate Active 123 / 133 40% 1 29.09.2026 -
Igor Paixão Olympique de Marseille Active 149 / 129 40% 4 26.09.2026 -
Alexey Miranchuk RC Strasbourg Active 138 / 148 40% 2 26.09.2026 -
André Silva Porto Active 122 / 150 40% 6 24.09.2026 -
Uriel Antuna Pumas UNAM Active 122 / 123 40% 5 23.09.2026 -
Martín Ojeda Orlando City Active 122 / 132 40% 1 18.09.2026 -
Armando Broja Burnley Active 123 / 142 40% 1 10.09.2026 -
Mathys Tel Stade Rennais Active 141 / 149 40% 3 08.09.2026 -
Gabriel Sara Galatasaray Active 153 / 154 40% 1 08.09.2026 -
Wilson Isidor Sunderland Active 125 / 114 40% 1 04.09.2026 -
Nicolás de la Cruz Flamengo Active 138 / 121 40% 1 31.08.2026 -
Víctor Gómez Braga Active 133 / 130 40% 1 31.08.2026 -
Miguel Merentiel Boca Juniors Active 126 / 134 40% 5 27.08.2026 -
Noah Okafor Leeds United Active 129 / 120 40% 1 27.08.2026 -
Denis Bouanga Los Angeles Football Club Active 121 / 124 40% 2 26.08.2026 -
Bertrand Traoré Sunderland Active 134 / 136 40% 1 23.08.2026 -
Brian Brobbey Sunderland Active 139 / 138 40% 1 22.08.2026 -
Pablo Rosario Porto Active 134 / 127 40% 1 22.08.2026 -
Léo Scienza Southampton Active 137 / 152 40% 1 22.08.2026 -
Rodrigo Garro Corinthians Active 129 / 132 40% 1 22.08.2026 -
Galeno Al-Ahli Active 133 / 149 40% 1 21.08.2026 -
Thulani Billiat Utrecht Active 123 / 122 40% 1 16.08.2026 -
Andreas Pereira Palmeiras Active 136 / 150 40% 1 15.08.2026 -
Tani Oluwaseyi Villarreal Active 152 / 138 40% 1 10.08.2026 -
Heorhii Sudakov Benfica Active 142 / 150 40% 1 08.08.2026 -
Dodo Fiorentina Active 148 / 133 40% 1 07.08.2026 -
Arthur Internacional Active 130 / 127 40% 1 07.08.2026 -
Borja Mayoral Getafe Active 127 / 131 40% 1 06.08.2026 -
Gonçalo Guedes Real Sociedad Active 133 / 165 40% 1 02.08.2026 -